Aspen Park, Colorado
Current Conditions -  °F | °C
As of 6:53 AM on Tuesday 27 Jan 2015 (Local Time) from KAPA Reporting Station
Few Clouds Few Clouds  
Wind Chill: 39°   Ceiling: Unl
Heat Index: 44°   Visibility: 10mi
Dew Point: 21°   Wind: 10mph
Humidity: 40%   Direction: 200°SSW
Pressure: 30.18"   Gusts: NA
Location:  39.4975°N, 105.289°W
Report Text: KAPA 271353Z 20009KT 10SM FEW140 07/M06 A3018 RMK AO2 SLP206 T00671061
Loading
Personal Weather Stations






























Interactive Weather Map New forecast layout! Learn more

10-Day Weather Forecast

Advertisements
Track Severe Weather on mobile